sensor_id;sensor_type;location;lat;lon;timestamp;P1;durP1;ratioP1;P2;durP2;ratioP2
2257;SDS011;1136;51.574;7.706;2023-02-21T00:02:36;41.43;;;27.70;;
2257;SDS011;1136;51.574;7.706;2023-02-21T00:05:21;40.87;;;27.57;;
2257;SDS011;1136;51.574;7.706;2023-02-21T00:08:06;41.47;;;28.77;;
2257;SDS011;1136;51.574;7.706;2023-02-21T00:10:51;40.37;;;28.27;;
2257;SDS011;1136;51.574;7.706;2023-02-21T00:13:37;34.20;;;24.40;;
2257;SDS011;1136;51.574;7.706;2023-02-21T00:16:23;43.43;;;27.67;;
2257;SDS011;1136;51.574;7.706;2023-02-21T00:19:08;39.47;;;26.60;;
2257;SDS011;1136;51.574;7.706;2023-02-21T00:21:53;48.80;;;28.77;;
2257;SDS011;1136;51.574;7.706;2023-02-21T00:24:38;37.07;;;25.60;;
2257;SDS011;1136;51.574;7.706;2023-02-21T00:27:24;44.13;;;28.70;;
2257;SDS011;1136;51.574;7.706;2023-02-21T00:30:10;39.37;;;27.43;;
2257;SDS011;1136;51.574;7.706;2023-02-21T00:32:55;41.60;;;30.13;;
2257;SDS011;1136;51.574;7.706;2023-02-21T00:35:41;46.53;;;29.37;;
2257;SDS011;1136;51.574;7.706;2023-02-21T00:38:26;38.63;;;27.87;;
2257;SDS011;1136;51.574;7.706;2023-02-21T00:41:11;44.10;;;27.40;;
2257;SDS011;1136;51.574;7.706;2023-02-21T00:43:56;45.20;;;28.53;;
2257;SDS011;1136;51.574;7.706;2023-02-21T00:46:41;44.73;;;29.40;;
2257;SDS011;1136;51.574;7.706;2023-02-21T00:49:26;46.03;;;26.67;;
2257;SDS011;1136;51.574;7.706;2023-02-21T00:52:12;44.33;;;28.00;;
2257;SDS011;1136;51.574;7.706;2023-02-21T00:54:57;48.17;;;28.97;;
2257;SDS011;1136;51.574;7.706;2023-02-21T00:57:42;41.93;;;28.03;;
2257;SDS011;1136;51.574;7.706;2023-02-21T01:00:27;46.80;;;29.53;;
2257;SDS011;1136;51.574;7.706;2023-02-21T01:03:13;41.57;;;26.80;;
2257;SDS011;1136;51.574;7.706;2023-02-21T01:06:07;44.93;;;30.00;;
2257;SDS011;1136;51.574;7.706;2023-02-21T01:08:54;43.53;;;29.00;;
2257;SDS011;1136;51.574;7.706;2023-02-21T01:11:38;48.10;;;28.07;;
2257;SDS011;1136;51.574;7.706;2023-02-21T01:14:23;48.17;;;28.37;;
2257;SDS011;1136;51.574;7.706;2023-02-21T01:17:08;51.70;;;31.13;;
2257;SDS011;1136;51.574;7.706;2023-02-21T01:19:53;49.07;;;31.70;;
2257;SDS011;1136;51.574;7.706;2023-02-21T01:22:38;52.73;;;30.13;;
2257;SDS011;1136;51.574;7.706;2023-02-21T01:25:24;54.27;;;30.70;;
2257;SDS011;1136;51.574;7.706;2023-02-21T01:28:09;50.37;;;30.70;;
2257;SDS011;1136;51.574;7.706;2023-02-21T01:30:54;49.20;;;31.17;;
2257;SDS011;1136;51.574;7.706;2023-02-21T01:33:40;48.93;;;30.77;;
2257;SDS011;1136;51.574;7.706;2023-02-21T01:36:26;44.83;;;28.93;;
2257;SDS011;1136;51.574;7.706;2023-02-21T01:39:11;44.87;;;29.20;;
2257;SDS011;1136;51.574;7.706;2023-02-21T01:41:57;50.87;;;31.40;;
2257;SDS011;1136;51.574;7.706;2023-02-21T01:44:43;53.03;;;33.40;;
2257;SDS011;1136;51.574;7.706;2023-02-21T01:47:29;57.73;;;31.73;;
2257;SDS011;1136;51.574;7.706;2023-02-21T01:50:22;52.73;;;32.20;;
2257;SDS011;1136;51.574;7.706;2023-02-21T01:53:14;50.63;;;31.77;;
2257;SDS011;1136;51.574;7.706;2023-02-21T01:56:02;56.70;;;34.50;;
2257;SDS011;1136;51.574;7.706;2023-02-21T01:58:48;60.20;;;32.93;;
2257;SDS011;1136;51.574;7.706;2023-02-21T02:04:39;55.33;;;33.20;;
2257;SDS011;1136;51.574;7.706;2023-02-21T02:07:26;56.77;;;33.40;;
2257;SDS011;1136;51.574;7.706;2023-02-21T02:10:11;55.57;;;32.13;;
2257;SDS011;1136;51.574;7.706;2023-02-21T02:21:10;61.00;;;34.17;;
2257;SDS011;1136;51.574;7.706;2023-02-21T02:35:02;59.53;;;33.43;;
2257;SDS011;1136;51.574;7.706;2023-02-21T02:37:51;64.20;;;37.40;;
2257;SDS011;1136;51.574;7.706;2023-02-21T02:45:45;61.80;;;35.87;;
2257;SDS011;1136;51.574;7.706;2023-02-21T02:48:15;58.30;;;36.07;;
2257;SDS011;1136;51.574;7.706;2023-02-21T02:50:46;65.73;;;35.10;;
2257;SDS011;1136;51.574;7.706;2023-02-21T02:53:17;66.17;;;35.00;;
2257;SDS011;1136;51.574;7.706;2023-02-21T02:55:56;65.27;;;36.47;;
2257;SDS011;1136;51.574;7.706;2023-02-21T02:58:24;71.53;;;37.90;;
2257;SDS011;1136;51.574;7.706;2023-02-21T03:01:06;67.03;;;36.23;;
2257;SDS011;1136;51.574;7.706;2023-02-21T03:03:49;63.83;;;36.10;;
2257;SDS011;1136;51.574;7.706;2023-02-21T03:09:25;75.37;;;35.50;;
2257;SDS011;1136;51.574;7.706;2023-02-21T03:12:00;70.40;;;36.83;;
2257;SDS011;1136;51.574;7.706;2023-02-21T03:14:46;74.23;;;37.50;;
2257;SDS011;1136;51.574;7.706;2023-02-21T03:17:16;73.20;;;35.40;;
2257;SDS011;1136;51.574;7.706;2023-02-21T03:19:46;76.07;;;37.97;;
2257;SDS011;1136;51.574;7.706;2023-02-21T03:22:14;78.47;;;38.33;;
2257;SDS011;1136;51.574;7.706;2023-02-21T03:24:43;77.43;;;36.30;;
2257;SDS011;1136;51.574;7.706;2023-02-21T03:27:11;79.77;;;38.00;;
2257;SDS011;1136;51.574;7.706;2023-02-21T03:29:38;76.83;;;39.37;;
2257;SDS011;1136;51.574;7.706;2023-02-21T03:32:07;81.50;;;40.23;;
2257;SDS011;1136;51.574;7.706;2023-02-21T03:34:40;80.50;;;41.10;;
2257;SDS011;1136;51.574;7.706;2023-02-21T03:37:08;79.97;;;39.40;;
2257;SDS011;1136;51.574;7.706;2023-02-21T03:39:37;83.13;;;39.63;;
2257;SDS011;1136;51.574;7.706;2023-02-21T03:42:03;87.33;;;41.60;;
2257;SDS011;1136;51.574;7.706;2023-02-21T03:44:30;84.00;;;41.63;;
2257;SDS011;1136;51.574;7.706;2023-02-21T03:46:56;79.97;;;40.77;;
2257;SDS011;1136;51.574;7.706;2023-02-21T03:49:23;81.73;;;39.03;;
2257;SDS011;1136;51.574;7.706;2023-02-21T03:51:50;90.40;;;43.10;;
2257;SDS011;1136;51.574;7.706;2023-02-21T03:54:16;85.63;;;41.70;;
2257;SDS011;1136;51.574;7.706;2023-02-21T03:56:43;78.13;;;40.10;;
2257;SDS011;1136;51.574;7.706;2023-02-21T03:59:10;83.17;;;43.57;;
2257;SDS011;1136;51.574;7.706;2023-02-21T04:01:36;83.57;;;41.43;;
2257;SDS011;1136;51.574;7.706;2023-02-21T04:04:03;93.47;;;43.53;;
2257;SDS011;1136;51.574;7.706;2023-02-21T04:06:29;83.93;;;42.20;;
2257;SDS011;1136;51.574;7.706;2023-02-21T04:08:56;99.73;;;43.57;;
2257;SDS011;1136;51.574;7.706;2023-02-21T04:11:23;87.37;;;39.70;;
2257;SDS011;1136;51.574;7.706;2023-02-21T04:13:49;91.20;;;42.00;;
2257;SDS011;1136;51.574;7.706;2023-02-21T04:16:16;95.97;;;42.63;;
2257;SDS011;1136;51.574;7.706;2023-02-21T04:18:42;99.53;;;42.57;;
2257;SDS011;1136;51.574;7.706;2023-02-21T04:21:09;89.57;;;41.87;;
2257;SDS011;1136;51.574;7.706;2023-02-21T04:23:36;84.47;;;41.97;;
2257;SDS011;1136;51.574;7.706;2023-02-21T04:26:02;95.23;;;46.00;;
2257;SDS011;1136;51.574;7.706;2023-02-21T04:28:29;88.60;;;42.53;;
2257;SDS011;1136;51.574;7.706;2023-02-21T04:30:56;78.23;;;39.17;;
2257;SDS011;1136;51.574;7.706;2023-02-21T04:33:22;89.17;;;42.17;;
2257;SDS011;1136;51.574;7.706;2023-02-21T04:35:49;81.50;;;42.00;;
2257;SDS011;1136;51.574;7.706;2023-02-21T04:38:16;87.97;;;42.17;;
2257;SDS011;1136;51.574;7.706;2023-02-21T04:40:42;78.70;;;41.63;;
2257;SDS011;1136;51.574;7.706;2023-02-21T04:43:09;80.70;;;40.37;;
2257;SDS011;1136;51.574;7.706;2023-02-21T04:45:35;78.50;;;39.70;;
2257;SDS011;1136;51.574;7.706;2023-02-21T04:48:03;77.33;;;39.93;;
2257;SDS011;1136;51.574;7.706;2023-02-21T04:50:29;69.10;;;37.83;;
2257;SDS011;1136;51.574;7.706;2023-02-21T04:52:56;85.10;;;40.07;;
2257;SDS011;1136;51.574;7.706;2023-02-21T04:55:22;71.20;;;40.53;;
2257;SDS011;1136;51.574;7.706;2023-02-21T04:57:49;73.93;;;40.40;;
2257;SDS011;1136;51.574;7.706;2023-02-21T05:00:15;83.50;;;41.87;;
2257;SDS011;1136;51.574;7.706;2023-02-21T05:02:42;84.30;;;41.60;;
2257;SDS011;1136;51.574;7.706;2023-02-21T05:05:09;76.10;;;39.27;;
2257;SDS011;1136;51.574;7.706;2023-02-21T05:07:36;86.10;;;41.70;;
2257;SDS011;1136;51.574;7.706;2023-02-21T05:10:03;72.13;;;38.50;;
2257;SDS011;1136;51.574;7.706;2023-02-21T05:12:31;78.23;;;40.73;;
2257;SDS011;1136;51.574;7.706;2023-02-21T05:14:57;81.30;;;41.93;;
2257;SDS011;1136;51.574;7.706;2023-02-21T05:17:24;83.90;;;39.77;;
2257;SDS011;1136;51.574;7.706;2023-02-21T05:19:53;84.23;;;38.93;;
2257;SDS011;1136;51.574;7.706;2023-02-21T05:22:20;83.53;;;41.97;;
2257;SDS011;1136;51.574;7.706;2023-02-21T05:24:47;82.60;;;40.70;;
2257;SDS011;1136;51.574;7.706;2023-02-21T05:27:15;80.93;;;40.50;;
2257;SDS011;1136;51.574;7.706;2023-02-21T05:29:49;86.30;;;41.67;;
2257;SDS011;1136;51.574;7.706;2023-02-21T05:32:18;76.80;;;39.07;;
2257;SDS011;1136;51.574;7.706;2023-02-21T05:34:46;83.17;;;40.07;;
2257;SDS011;1136;51.574;7.706;2023-02-21T05:37:13;86.50;;;41.50;;
2257;SDS011;1136;51.574;7.706;2023-02-21T05:39:40;77.13;;;40.60;;
2257;SDS011;1136;51.574;7.706;2023-02-21T05:42:07;94.63;;;42.17;;
2257;SDS011;1136;51.574;7.706;2023-02-21T05:44:33;93.27;;;42.20;;
2257;SDS011;1136;51.574;7.706;2023-02-21T05:47:00;85.43;;;41.97;;
2257;SDS011;1136;51.574;7.706;2023-02-21T05:49:27;83.37;;;40.57;;
2257;SDS011;1136;51.574;7.706;2023-02-21T05:51:54;77.33;;;39.70;;
2257;SDS011;1136;51.574;7.706;2023-02-21T05:54:21;80.73;;;40.27;;
2257;SDS011;1136;51.574;7.706;2023-02-21T05:56:48;89.47;;;40.50;;
2257;SDS011;1136;51.574;7.706;2023-02-21T05:59:16;81.30;;;38.60;;
2257;SDS011;1136;51.574;7.706;2023-02-21T06:01:45;73.33;;;37.93;;
2257;SDS011;1136;51.574;7.706;2023-02-21T06:04:12;78.80;;;40.87;;
2257;SDS011;1136;51.574;7.706;2023-02-21T06:06:39;88.47;;;41.07;;
2257;SDS011;1136;51.574;7.706;2023-02-21T06:09:06;84.23;;;42.07;;
2257;SDS011;1136;51.574;7.706;2023-02-21T06:11:33;87.73;;;41.87;;
2257;SDS011;1136;51.574;7.706;2023-02-21T06:14:03;87.53;;;39.70;;
2257;SDS011;1136;51.574;7.706;2023-02-21T06:16:38;86.20;;;41.60;;
2257;SDS011;1136;51.574;7.706;2023-02-21T06:19:06;82.60;;;39.97;;
2257;SDS011;1136;51.574;7.706;2023-02-21T06:21:34;80.97;;;40.50;;
2257;SDS011;1136;51.574;7.706;2023-02-21T06:24:01;94.10;;;41.10;;
2257;SDS011;1136;51.574;7.706;2023-02-21T06:26:28;91.97;;;43.33;;
2257;SDS011;1136;51.574;7.706;2023-02-21T06:28:54;91.43;;;41.33;;
2257;SDS011;1136;51.574;7.706;2023-02-21T06:31:21;91.07;;;43.00;;
2257;SDS011;1136;51.574;7.706;2023-02-21T06:33:48;100.47;;;43.40;;
2257;SDS011;1136;51.574;7.706;2023-02-21T06:36:17;90.37;;;40.97;;
2257;SDS011;1136;51.574;7.706;2023-02-21T06:38:46;87.87;;;40.30;;
2257;SDS011;1136;51.574;7.706;2023-02-21T06:41:20;87.47;;;41.30;;
2257;SDS011;1136;51.574;7.706;2023-02-21T06:43:51;97.03;;;42.47;;
2257;SDS011;1136;51.574;7.706;2023-02-21T06:46:20;94.57;;;40.70;;
2257;SDS011;1136;51.574;7.706;2023-02-21T06:48:48;92.10;;;42.20;;
2257;SDS011;1136;51.574;7.706;2023-02-21T06:51:15;109.73;;;46.10;;
2257;SDS011;1136;51.574;7.706;2023-02-21T06:53:43;91.53;;;45.10;;
2257;SDS011;1136;51.574;7.706;2023-02-21T06:56:11;105.33;;;44.63;;
2257;SDS011;1136;51.574;7.706;2023-02-21T06:58:38;93.93;;;40.60;;
2257;SDS011;1136;51.574;7.706;2023-02-21T07:01:04;86.00;;;42.63;;
2257;SDS011;1136;51.574;7.706;2023-02-21T07:03:31;94.93;;;43.40;;
2257;SDS011;1136;51.574;7.706;2023-02-21T07:05:57;93.10;;;42.50;;
2257;SDS011;1136;51.574;7.706;2023-02-21T07:08:24;105.90;;;44.43;;
2257;SDS011;1136;51.574;7.706;2023-02-21T07:10:51;106.30;;;45.37;;
2257;SDS011;1136;51.574;7.706;2023-02-21T07:13:18;93.70;;;44.30;;
2257;SDS011;1136;51.574;7.706;2023-02-21T07:15:47;96.10;;;42.13;;
2257;SDS011;1136;51.574;7.706;2023-02-21T07:18:14;99.67;;;45.13;;
2257;SDS011;1136;51.574;7.706;2023-02-21T07:20:40;99.47;;;44.27;;
2257;SDS011;1136;51.574;7.706;2023-02-21T07:23:07;96.97;;;44.33;;
2257;SDS011;1136;51.574;7.706;2023-02-21T07:25:34;102.83;;;46.90;;
2257;SDS011;1136;51.574;7.706;2023-02-21T07:28:01;104.03;;;45.10;;
2257;SDS011;1136;51.574;7.706;2023-02-21T07:30:29;106.70;;;45.57;;
2257;SDS011;1136;51.574;7.706;2023-02-21T07:32:57;104.80;;;44.30;;
2257;SDS011;1136;51.574;7.706;2023-02-21T07:35:24;84.73;;;43.53;;
2257;SDS011;1136;51.574;7.706;2023-02-21T07:37:51;97.43;;;44.50;;
2257;SDS011;1136;51.574;7.706;2023-02-21T07:40:18;88.40;;;44.07;;
2257;SDS011;1136;51.574;7.706;2023-02-21T07:42:45;100.17;;;45.80;;
2257;SDS011;1136;51.574;7.706;2023-02-21T07:45:14;92.77;;;44.47;;
2257;SDS011;1136;51.574;7.706;2023-02-21T07:47:41;96.57;;;43.50;;
2257;SDS011;1136;51.574;7.706;2023-02-21T07:50:11;98.77;;;45.87;;
2257;SDS011;1136;51.574;7.706;2023-02-21T07:52:38;100.40;;;43.30;;
2257;SDS011;1136;51.574;7.706;2023-02-21T07:55:04;92.67;;;42.63;;
2257;SDS011;1136;51.574;7.706;2023-02-21T07:57:31;78.40;;;41.67;;
2257;SDS011;1136;51.574;7.706;2023-02-21T07:59:58;85.37;;;42.87;;
2257;SDS011;1136;51.574;7.706;2023-02-21T08:02:24;81.80;;;42.43;;
2257;SDS011;1136;51.574;7.706;2023-02-21T08:04:51;96.17;;;41.90;;
2257;SDS011;1136;51.574;7.706;2023-02-21T08:07:18;89.13;;;41.07;;
2257;SDS011;1136;51.574;7.706;2023-02-21T08:09:45;83.53;;;42.57;;
2257;SDS011;1136;51.574;7.706;2023-02-21T08:12:12;81.23;;;41.20;;
2257;SDS011;1136;51.574;7.706;2023-02-21T08:14:39;86.23;;;41.70;;
2257;SDS011;1136;51.574;7.706;2023-02-21T08:17:05;79.87;;;39.33;;
2257;SDS011;1136;51.574;7.706;2023-02-21T08:19:32;79.60;;;39.17;;
2257;SDS011;1136;51.574;7.706;2023-02-21T08:21:58;79.27;;;40.60;;
2257;SDS011;1136;51.574;7.706;2023-02-21T08:24:25;81.73;;;39.87;;
2257;SDS011;1136;51.574;7.706;2023-02-21T08:26:51;81.07;;;39.93;;
2257;SDS011;1136;51.574;7.706;2023-02-21T08:29:18;77.00;;;41.87;;
2257;SDS011;1136;51.574;7.706;2023-02-21T08:31:45;85.17;;;39.90;;
2257;SDS011;1136;51.574;7.706;2023-02-21T08:34:12;82.63;;;40.00;;
2257;SDS011;1136;51.574;7.706;2023-02-21T08:36:40;80.83;;;41.20;;
2257;SDS011;1136;51.574;7.706;2023-02-21T08:39:08;75.97;;;39.60;;
2257;SDS011;1136;51.574;7.706;2023-02-21T08:44:04;81.63;;;38.50;;
2257;SDS011;1136;51.574;7.706;2023-02-21T08:46:32;77.53;;;40.27;;
2257;SDS011;1136;51.574;7.706;2023-02-21T08:48:58;74.93;;;39.43;;
2257;SDS011;1136;51.574;7.706;2023-02-21T08:51:26;78.93;;;37.80;;
2257;SDS011;1136;51.574;7.706;2023-02-21T08:53:56;72.73;;;38.63;;
2257;SDS011;1136;51.574;7.706;2023-02-21T08:56:23;75.40;;;36.50;;
2257;SDS011;1136;51.574;7.706;2023-02-21T08:58:51;77.47;;;40.70;;
2257;SDS011;1136;51.574;7.706;2023-02-21T09:01:20;81.83;;;38.80;;
2257;SDS011;1136;51.574;7.706;2023-02-21T09:03:47;73.33;;;40.97;;
2257;SDS011;1136;51.574;7.706;2023-02-21T09:06:14;84.73;;;39.73;;
2257;SDS011;1136;51.574;7.706;2023-02-21T09:08:41;82.63;;;37.57;;
2257;SDS011;1136;51.574;7.706;2023-02-21T09:11:07;75.13;;;38.97;;
2257;SDS011;1136;51.574;7.706;2023-02-21T09:13:34;72.93;;;39.70;;
2257;SDS011;1136;51.574;7.706;2023-02-21T09:16:01;74.07;;;37.73;;
2257;SDS011;1136;51.574;7.706;2023-02-21T09:18:29;76.20;;;39.80;;
2257;SDS011;1136;51.574;7.706;2023-02-21T09:20:57;71.63;;;38.70;;
2257;SDS011;1136;51.574;7.706;2023-02-21T09:23:25;72.10;;;38.37;;
2257;SDS011;1136;51.574;7.706;2023-02-21T09:25:54;85.33;;;39.30;;
2257;SDS011;1136;51.574;7.706;2023-02-21T09:28:20;82.40;;;41.60;;
2257;SDS011;1136;51.574;7.706;2023-02-21T09:30:47;71.83;;;37.93;;
2257;SDS011;1136;51.574;7.706;2023-02-21T09:33:15;82.00;;;41.20;;
2257;SDS011;1136;51.574;7.706;2023-02-21T09:35:42;76.37;;;41.03;;
2257;SDS011;1136;51.574;7.706;2023-02-21T09:38:08;79.60;;;39.67;;
2257;SDS011;1136;51.574;7.706;2023-02-21T09:43:14;91.47;;;40.47;;
2257;SDS011;1136;51.574;7.706;2023-02-21T09:45:43;80.10;;;40.20;;
2257;SDS011;1136;51.574;7.706;2023-02-21T09:48:14;74.57;;;39.17;;
2257;SDS011;1136;51.574;7.706;2023-02-21T09:50:54;71.30;;;36.70;;
2257;SDS011;1136;51.574;7.706;2023-02-21T09:53:26;70.27;;;35.27;;
2257;SDS011;1136;51.574;7.706;2023-02-21T09:56:04;74.43;;;37.97;;
2257;SDS011;1136;51.574;7.706;2023-02-21T09:58:40;78.80;;;36.37;;
2257;SDS011;1136;51.574;7.706;2023-02-21T10:03:44;68.73;;;34.50;;
2257;SDS011;1136;51.574;7.706;2023-02-21T10:19:59;67.40;;;31.93;;
2257;SDS011;1136;51.574;7.706;2023-02-21T10:22:34;60.33;;;32.60;;
2257;SDS011;1136;51.574;7.706;2023-02-21T10:25:11;74.57;;;35.43;;
2257;SDS011;1136;51.574;7.706;2023-02-21T10:27:46;65.10;;;33.73;;
2257;SDS011;1136;51.574;7.706;2023-02-21T10:30:23;67.60;;;35.80;;
2257;SDS011;1136;51.574;7.706;2023-02-21T10:32:55;62.30;;;32.70;;
2257;SDS011;1136;51.574;7.706;2023-02-21T10:35:22;69.87;;;33.00;;
2257;SDS011;1136;51.574;7.706;2023-02-21T10:37:53;64.57;;;30.60;;
2257;SDS011;1136;51.574;7.706;2023-02-21T10:43:12;61.00;;;29.20;;
2257;SDS011;1136;51.574;7.706;2023-02-21T10:48:31;56.63;;;28.80;;
2257;SDS011;1136;51.574;7.706;2023-02-21T10:53:43;51.93;;;27.87;;
2257;SDS011;1136;51.574;7.706;2023-02-21T11:03:53;60.93;;;30.47;;
2257;SDS011;1136;51.574;7.706;2023-02-21T11:06:43;58.53;;;28.07;;
2257;SDS011;1136;51.574;7.706;2023-02-21T11:12:24;58.57;;;30.37;;
2257;SDS011;1136;51.574;7.706;2023-02-21T11:17:19;56.63;;;29.53;;
2257;SDS011;1136;51.574;7.706;2023-02-21T11:22:18;55.77;;;29.70;;
2257;SDS011;1136;51.574;7.706;2023-02-21T11:27:27;49.97;;;26.90;;
2257;SDS011;1136;51.574;7.706;2023-02-21T11:29:56;50.63;;;26.27;;
2257;SDS011;1136;51.574;7.706;2023-02-21T11:32:28;48.10;;;27.27;;
2257;SDS011;1136;51.574;7.706;2023-02-21T11:35:13;54.67;;;25.73;;
2257;SDS011;1136;51.574;7.706;2023-02-21T11:37:47;50.73;;;26.43;;
2257;SDS011;1136;51.574;7.706;2023-02-21T11:40:49;44.07;;;25.23;;
2257;SDS011;1136;51.574;7.706;2023-02-21T11:43:20;46.33;;;24.70;;
2257;SDS011;1136;51.574;7.706;2023-02-21T11:48:33;49.40;;;26.43;;
2257;SDS011;1136;51.574;7.706;2023-02-21T11:51:04;37.97;;;25.40;;
2257;SDS011;1136;51.574;7.706;2023-02-21T11:53:40;44.33;;;25.33;;
2257;SDS011;1136;51.574;7.706;2023-02-21T12:01:29;41.90;;;25.23;;
2257;SDS011;1136;51.574;7.706;2023-02-21T12:04:07;48.30;;;26.60;;
2257;SDS011;1136;51.574;7.706;2023-02-21T12:09:51;40.00;;;22.90;;
2257;SDS011;1136;51.574;7.706;2023-02-21T12:12:36;46.43;;;23.77;;
2257;SDS011;1136;51.574;7.706;2023-02-21T12:17:45;36.73;;;24.23;;
2257;SDS011;1136;51.574;7.706;2023-02-21T12:31:55;25.30;;;18.53;;
2257;SDS011;1136;51.574;7.706;2023-02-21T12:34:35;26.07;;;17.10;;
2257;SDS011;1136;51.574;7.706;2023-02-21T12:40:35;25.20;;;16.43;;
2257;SDS011;1136;51.574;7.706;2023-02-21T12:43:19;25.53;;;16.47;;
2257;SDS011;1136;51.574;7.706;2023-02-21T12:51:02;29.93;;;16.20;;
2257;SDS011;1136;51.574;7.706;2023-02-21T12:53:50;27.83;;;17.10;;
2257;SDS011;1136;51.574;7.706;2023-02-21T12:56:31;25.30;;;16.67;;
2257;SDS011;1136;51.574;7.706;2023-02-21T12:59:07;25.50;;;16.87;;
2257;SDS011;1136;51.574;7.706;2023-02-21T13:07:16;25.20;;;15.20;;
2257;SDS011;1136;51.574;7.706;2023-02-21T13:09:58;22.83;;;17.20;;
2257;SDS011;1136;51.574;7.706;2023-02-21T13:15:43;19.63;;;14.00;;
2257;SDS011;1136;51.574;7.706;2023-02-21T13:18:25;23.37;;;16.77;;
2257;SDS011;1136;51.574;7.706;2023-02-21T13:20:56;23.30;;;16.40;;
2257;SDS011;1136;51.574;7.706;2023-02-21T13:29:24;23.07;;;15.47;;
2257;SDS011;1136;51.574;7.706;2023-02-21T13:34:39;20.40;;;15.17;;
2257;SDS011;1136;51.574;7.706;2023-02-21T13:37:27;21.47;;;15.87;;
2257;SDS011;1136;51.574;7.706;2023-02-21T13:40:00;23.97;;;16.47;;
2257;SDS011;1136;51.574;7.706;2023-02-21T13:42:33;21.13;;;14.77;;
2257;SDS011;1136;51.574;7.706;2023-02-21T13:55:28;20.53;;;14.50;;
2257;SDS011;1136;51.574;7.706;2023-02-21T14:03:32;25.90;;;16.40;;
2257;SDS011;1136;51.574;7.706;2023-02-21T14:10:55;22.40;;;15.70;;
2257;SDS011;1136;51.574;7.706;2023-02-21T14:13:45;28.20;;;15.70;;
2257;SDS011;1136;51.574;7.706;2023-02-21T14:18:44;25.73;;;17.70;;
2257;SDS011;1136;51.574;7.706;2023-02-21T14:21:23;27.70;;;17.80;;
2257;SDS011;1136;51.574;7.706;2023-02-21T14:24:21;22.53;;;17.63;;
2257;SDS011;1136;51.574;7.706;2023-02-21T14:26:52;27.33;;;19.17;;
2257;SDS011;1136;51.574;7.706;2023-02-21T14:29:39;25.77;;;18.63;;
2257;SDS011;1136;51.574;7.706;2023-02-21T14:51:04;23.90;;;17.37;;
2257;SDS011;1136;51.574;7.706;2023-02-21T14:59:06;26.83;;;17.53;;
2257;SDS011;1136;51.574;7.706;2023-02-21T15:10:15;23.57;;;17.30;;
2257;SDS011;1136;51.574;7.706;2023-02-21T15:12:54;24.90;;;18.17;;
2257;SDS011;1136;51.574;7.706;2023-02-21T15:15:28;23.30;;;17.27;;
2257;SDS011;1136;51.574;7.706;2023-02-21T15:17:58;29.67;;;17.20;;
2257;SDS011;1136;51.574;7.706;2023-02-21T15:20:26;23.30;;;18.37;;
2257;SDS011;1136;51.574;7.706;2023-02-21T15:23:19;24.97;;;17.57;;
2257;SDS011;1136;51.574;7.706;2023-02-21T15:25:51;28.27;;;18.17;;
2257;SDS011;1136;51.574;7.706;2023-02-21T15:28:29;23.43;;;18.30;;
2257;SDS011;1136;51.574;7.706;2023-02-21T15:31:01;23.63;;;18.00;;
2257;SDS011;1136;51.574;7.706;2023-02-21T15:33:34;23.80;;;18.70;;
2257;SDS011;1136;51.574;7.706;2023-02-21T15:36:35;23.10;;;16.73;;
2257;SDS011;1136;51.574;7.706;2023-02-21T15:39:00;26.43;;;18.53;;
2257;SDS011;1136;51.574;7.706;2023-02-21T15:46:52;29.40;;;20.10;;
2257;SDS011;1136;51.574;7.706;2023-02-21T15:49:22;29.13;;;18.97;;
2257;SDS011;1136;51.574;7.706;2023-02-21T15:51:54;29.70;;;21.10;;
2257;SDS011;1136;51.574;7.706;2023-02-21T15:54:25;30.70;;;19.97;;
2257;SDS011;1136;51.574;7.706;2023-02-21T15:57:01;31.20;;;19.70;;
2257;SDS011;1136;51.574;7.706;2023-02-21T15:59:42;27.33;;;20.03;;
2257;SDS011;1136;51.574;7.706;2023-02-21T16:02:14;30.20;;;19.87;;
2257;SDS011;1136;51.574;7.706;2023-02-21T16:07:30;28.30;;;18.90;;
2257;SDS011;1136;51.574;7.706;2023-02-21T16:10:06;29.20;;;20.17;;
2257;SDS011;1136;51.574;7.706;2023-02-21T16:12:35;24.57;;;19.20;;
2257;SDS011;1136;51.574;7.706;2023-02-21T16:15:06;29.83;;;19.80;;
2257;SDS011;1136;51.574;7.706;2023-02-21T16:17:39;29.07;;;20.67;;
2257;SDS011;1136;51.574;7.706;2023-02-21T16:20:14;29.17;;;21.07;;
2257;SDS011;1136;51.574;7.706;2023-02-21T16:22:50;29.70;;;21.10;;
2257;SDS011;1136;51.574;7.706;2023-02-21T16:28:42;32.57;;;23.83;;
2257;SDS011;1136;51.574;7.706;2023-02-21T16:31:13;31.97;;;22.00;;
2257;SDS011;1136;51.574;7.706;2023-02-21T16:33:53;36.60;;;24.70;;
2257;SDS011;1136;51.574;7.706;2023-02-21T16:36:22;42.10;;;25.70;;
2257;SDS011;1136;51.574;7.706;2023-02-21T16:38:51;36.67;;;23.23;;
2257;SDS011;1136;51.574;7.706;2023-02-21T16:41:17;35.80;;;23.50;;
2257;SDS011;1136;51.574;7.706;2023-02-21T16:43:44;31.20;;;22.07;;
2257;SDS011;1136;51.574;7.706;2023-02-21T16:46:12;34.60;;;25.13;;
2257;SDS011;1136;51.574;7.706;2023-02-21T16:48:39;34.50;;;22.00;;
2257;SDS011;1136;51.574;7.706;2023-02-21T16:51:10;35.57;;;22.00;;
2257;SDS011;1136;51.574;7.706;2023-02-21T16:53:42;34.20;;;22.30;;
2257;SDS011;1136;51.574;7.706;2023-02-21T16:56:08;39.77;;;24.03;;
2257;SDS011;1136;51.574;7.706;2023-02-21T16:58:38;41.93;;;25.60;;
2257;SDS011;1136;51.574;7.706;2023-02-21T17:01:11;32.30;;;23.23;;
2257;SDS011;1136;51.574;7.706;2023-02-21T17:03:39;34.57;;;23.00;;
2257;SDS011;1136;51.574;7.706;2023-02-21T17:06:07;34.10;;;23.33;;
2257;SDS011;1136;51.574;7.706;2023-02-21T17:08:41;36.77;;;25.27;;
2257;SDS011;1136;51.574;7.706;2023-02-21T17:11:07;32.77;;;23.47;;
2257;SDS011;1136;51.574;7.706;2023-02-21T17:13:34;42.73;;;24.63;;
2257;SDS011;1136;51.574;7.706;2023-02-21T17:16:00;35.83;;;22.70;;
2257;SDS011;1136;51.574;7.706;2023-02-21T17:18:27;36.23;;;23.83;;
2257;SDS011;1136;51.574;7.706;2023-02-21T17:20:57;30.33;;;20.90;;
2257;SDS011;1136;51.574;7.706;2023-02-21T17:23:24;34.13;;;21.97;;
2257;SDS011;1136;51.574;7.706;2023-02-21T17:25:51;37.10;;;23.20;;
2257;SDS011;1136;51.574;7.706;2023-02-21T17:28:17;34.93;;;24.80;;
2257;SDS011;1136;51.574;7.706;2023-02-21T17:30:44;34.60;;;22.20;;
2257;SDS011;1136;51.574;7.706;2023-02-21T17:33:13;30.13;;;21.03;;
2257;SDS011;1136;51.574;7.706;2023-02-21T17:35:40;32.00;;;21.90;;
2257;SDS011;1136;51.574;7.706;2023-02-21T17:38:07;35.90;;;24.03;;
2257;SDS011;1136;51.574;7.706;2023-02-21T17:40:33;38.27;;;24.17;;
2257;SDS011;1136;51.574;7.706;2023-02-21T17:43:00;34.57;;;24.50;;
2257;SDS011;1136;51.574;7.706;2023-02-21T17:45:26;32.73;;;22.80;;
2257;SDS011;1136;51.574;7.706;2023-02-21T17:47:53;32.93;;;23.77;;
2257;SDS011;1136;51.574;7.706;2023-02-21T17:50:20;29.57;;;21.50;;
2257;SDS011;1136;51.574;7.706;2023-02-21T17:52:46;37.50;;;22.63;;
2257;SDS011;1136;51.574;7.706;2023-02-21T17:55:21;34.10;;;22.67;;
2257;SDS011;1136;51.574;7.706;2023-02-21T17:57:51;32.77;;;21.97;;
2257;SDS011;1136;51.574;7.706;2023-02-21T18:00:19;32.13;;;20.90;;
2257;SDS011;1136;51.574;7.706;2023-02-21T18:02:50;30.43;;;20.50;;
2257;SDS011;1136;51.574;7.706;2023-02-21T18:05:17;33.53;;;21.27;;
2257;SDS011;1136;51.574;7.706;2023-02-21T18:07:45;29.47;;;20.93;;
2257;SDS011;1136;51.574;7.706;2023-02-21T18:10:16;30.53;;;21.07;;
2257;SDS011;1136;51.574;7.706;2023-02-21T18:12:43;33.80;;;21.40;;
2257;SDS011;1136;51.574;7.706;2023-02-21T18:15:11;29.00;;;20.60;;
2257;SDS011;1136;51.574;7.706;2023-02-21T18:17:37;29.30;;;21.10;;
2257;SDS011;1136;51.574;7.706;2023-02-21T18:20:06;34.10;;;21.47;;
2257;SDS011;1136;51.574;7.706;2023-02-21T18:22:35;35.93;;;24.30;;
2257;SDS011;1136;51.574;7.706;2023-02-21T18:25:02;32.50;;;21.30;;
2257;SDS011;1136;51.574;7.706;2023-02-21T18:27:30;32.17;;;21.53;;
2257;SDS011;1136;51.574;7.706;2023-02-21T18:29:56;29.43;;;20.70;;
2257;SDS011;1136;51.574;7.706;2023-02-21T18:32:23;32.83;;;22.20;;
2257;SDS011;1136;51.574;7.706;2023-02-21T18:34:51;35.87;;;21.10;;
2257;SDS011;1136;51.574;7.706;2023-02-21T18:37:18;33.87;;;21.57;;